createdAt,value
2022-09-12T00:00:33.000Z,83.37
2022-09-12T00:01:30.000Z,83.34
2022-09-12T00:02:30.000Z,83.79
2022-09-12T00:03:30.000Z,83.63
2022-09-12T00:04:30.000Z,83.34
2022-09-12T00:05:31.000Z,83.46
2022-09-12T00:06:35.000Z,83.49
2022-09-12T00:07:29.000Z,83.41
2022-09-12T00:08:29.000Z,83.18
2022-09-12T00:09:30.000Z,83.00
2022-09-12T00:10:30.000Z,82.98
2022-09-12T00:11:30.000Z,83.03
2022-09-12T00:12:30.000Z,83.01
2022-09-12T00:13:30.000Z,82.84
2022-09-12T00:14:30.000Z,82.98
2022-09-12T00:15:30.000Z,82.83
2022-09-12T00:16:31.000Z,83.01
2022-09-12T00:17:35.000Z,82.86
2022-09-12T00:18:31.000Z,83.32
2022-09-12T00:19:30.000Z,83.65
2022-09-12T00:20:30.000Z,83.67
2022-09-12T00:21:34.000Z,83.74
2022-09-12T00:22:29.000Z,83.71
2022-09-12T00:23:31.000Z,83.48
2022-09-12T00:24:30.000Z,83.46
2022-09-12T00:25:30.000Z,83.23
2022-09-12T00:26:30.000Z,83.18
2022-09-12T00:27:29.000Z,83.24
2022-09-12T00:28:32.000Z,83.19
2022-09-12T00:29:30.000Z,83.17
2022-09-12T00:30:29.000Z,83.14
2022-09-12T00:31:30.000Z,83.41
2022-09-12T00:32:30.000Z,84.10
2022-09-12T00:33:29.000Z,83.65
2022-09-12T00:34:30.000Z,83.84
2022-09-12T00:35:29.000Z,83.75
2022-09-12T00:36:30.000Z,83.67
2022-09-12T00:37:30.000Z,83.61
2022-09-12T00:38:30.000Z,83.76
2022-09-12T00:39:30.000Z,84.18
2022-09-12T00:40:30.000Z,84.08
2022-09-12T00:41:36.000Z,84.07
2022-09-12T00:42:29.000Z,83.95
2022-09-12T00:43:39.000Z,84.33
2022-09-12T00:44:44.000Z,84.44
2022-09-12T00:45:30.000Z,84.36
2022-09-12T00:46:40.000Z,84.21
2022-09-12T00:47:31.000Z,83.98
2022-09-12T00:48:40.000Z,83.89
2022-09-12T00:49:44.000Z,83.85
2022-09-12T00:50:31.000Z,83.69
2022-09-12T00:51:32.000Z,84.14
2022-09-12T00:52:40.000Z,84.15
2022-09-12T00:53:30.000Z,84.23
2022-09-12T00:54:36.000Z,84.26
2022-09-12T00:55:38.000Z,84.33
2022-09-12T00:56:31.000Z,84.17
2022-09-12T00:57:38.000Z,84.01
2022-09-12T00:58:40.000Z,84.43
2022-09-12T00:59:37.000Z,84.27
2022-09-12T01:00:30.000Z,84.00
2022-09-12T01:01:30.000Z,84.32
2022-09-12T01:02:30.000Z,84.53
2022-09-12T01:03:30.000Z,84.63
2022-09-12T01:04:30.000Z,84.35
2022-09-12T01:05:34.000Z,84.08
2022-09-12T01:06:37.000Z,83.86
2022-09-12T01:07:29.000Z,84.04
2022-09-12T01:08:32.000Z,84.36
2022-09-12T01:09:30.000Z,84.49
2022-09-12T01:10:33.000Z,84.48
2022-09-12T01:11:34.000Z,84.41
2022-09-12T01:12:30.000Z,84.13
2022-09-12T01:13:32.000Z,84.29
2022-09-12T01:14:30.000Z,84.10
2022-09-12T01:15:29.000Z,83.85
2022-09-12T01:16:30.000Z,83.64
2022-09-12T01:17:43.000Z,83.53
2022-09-12T01:18:43.000Z,83.84
2022-09-12T01:19:53.000Z,83.80
2022-09-12T01:20:43.000Z,83.68
2022-09-12T01:21:38.000Z,83.90
2022-09-12T01:22:41.000Z,84.38
2022-09-12T01:23:50.000Z,84.38
2022-09-12T01:24:43.000Z,84.31
2022-09-12T01:25:51.000Z,84.00
2022-09-12T01:26:50.000Z,84.00
2022-09-12T01:27:39.000Z,83.87
2022-09-12T01:28:53.000Z,83.89
2022-09-12T01:29:48.000Z,83.66
2022-09-12T01:30:50.000Z,83.69
2022-09-12T01:31:56.000Z,83.92
2022-09-12T01:32:49.000Z,83.71
2022-09-12T01:33:41.000Z,83.60
2022-09-12T01:34:42.000Z,83.52
2022-09-12T01:35:50.000Z,83.51
2022-09-12T01:36:39.000Z,83.54
2022-09-12T01:37:42.000Z,83.46
2022-09-12T01:38:36.000Z,83.51
2022-09-12T01:39:57.000Z,83.41
2022-09-12T01:40:49.000Z,84.32
2022-09-12T01:41:41.000Z,84.26
2022-09-12T01:42:41.000Z,83.92
2022-09-12T01:43:43.000Z,83.86
2022-09-12T01:44:38.000Z,84.12
2022-09-12T01:45:42.000Z,83.98
2022-09-12T01:46:51.000Z,84.05
2022-09-12T01:47:39.000Z,83.94
2022-09-12T01:48:39.000Z,83.73
2022-09-12T01:49:40.000Z,83.87
2022-09-12T01:50:34.000Z,84.24
2022-09-12T01:51:40.000Z,83.82
2022-09-12T01:52:41.000Z,83.80
2022-09-12T01:53:36.000Z,83.68
2022-09-12T01:54:41.000Z,83.73
2022-09-12T01:55:39.000Z,83.83
2022-09-12T01:56:33.000Z,84.13
2022-09-12T01:57:37.000Z,84.09
2022-09-12T01:58:40.000Z,83.80
2022-09-12T01:59:35.000Z,83.99
2022-09-12T02:00:35.000Z,84.08
2022-09-12T02:01:32.000Z,83.70
2022-09-12T02:02:38.000Z,84.07
2022-09-12T02:03:37.000Z,84.05
2022-09-12T02:04:41.000Z,84.01
2022-09-12T02:05:34.000Z,83.74
2022-09-12T02:06:38.000Z,83.68
2022-09-12T02:07:37.000Z,83.76
2022-09-12T02:08:36.000Z,83.62
2022-09-12T02:09:38.000Z,83.82
2022-09-12T02:10:37.000Z,83.75
2022-09-12T02:11:34.000Z,84.01
2022-09-12T02:12:38.000Z,84.01
2022-09-12T02:13:38.000Z,84.40
2022-09-12T02:14:36.000Z,84.34
2022-09-12T02:15:38.000Z,84.22
2022-09-12T02:16:39.000Z,84.02
2022-09-12T02:17:36.000Z,84.26
2022-09-12T02:18:32.000Z,84.04
2022-09-12T02:19:38.000Z,84.15
2022-09-12T02:20:35.000Z,84.31
2022-09-12T02:21:35.000Z,84.07
2022-09-12T02:22:30.000Z,84.12
2022-09-12T02:23:31.000Z,84.00
2022-09-12T02:24:43.000Z,84.24
2022-09-12T02:25:30.000Z,84.37
2022-09-12T02:26:35.000Z,84.46
2022-09-12T02:27:38.000Z,84.36
2022-09-12T02:28:34.000Z,84.74
2022-09-12T02:29:30.000Z,84.37
2022-09-12T02:30:38.000Z,84.31
2022-09-12T02:31:40.000Z,84.24
2022-09-12T02:32:39.000Z,84.28
2022-09-12T02:33:46.000Z,84.50
2022-09-12T02:34:45.000Z,84.38
2022-09-12T02:35:53.000Z,84.39
2022-09-12T02:36:39.000Z,84.18
2022-09-12T02:37:47.000Z,84.37
2022-09-12T02:38:45.000Z,84.12
2022-09-12T02:39:31.000Z,84.04
2022-09-12T02:40:32.000Z,84.28
2022-09-12T02:41:30.000Z,84.02
2022-09-12T02:42:30.000Z,84.21
2022-09-12T02:43:30.000Z,84.14
2022-09-12T02:44:32.000Z,84.41
2022-09-12T02:45:35.000Z,84.31
2022-09-12T02:46:37.000Z,84.04
2022-09-12T02:47:37.000Z,84.16
2022-09-12T02:48:34.000Z,84.04
2022-09-12T02:49:30.000Z,83.96
2022-09-12T02:50:31.000Z,84.05
2022-09-12T02:51:30.000Z,83.95
2022-09-12T02:52:30.000Z,83.96
2022-09-12T02:53:30.000Z,83.85
2022-09-12T02:54:31.000Z,84.48
2022-09-12T02:55:35.000Z,84.17
2022-09-12T02:56:30.000Z,84.00
2022-09-12T02:57:30.000Z,84.46
2022-09-12T02:58:31.000Z,84.03
2022-09-12T02:59:30.000Z,84.02
2022-09-12T03:00:36.000Z,84.19
2022-09-12T03:01:41.000Z,84.16
2022-09-12T03:02:53.000Z,84.11
2022-09-12T03:03:46.000Z,84.49
2022-09-12T03:04:53.000Z,84.16
2022-09-12T03:05:35.000Z,84.45
2022-09-12T03:06:49.000Z,84.21
2022-09-12T03:07:46.000Z,84.50
2022-09-12T03:08:40.000Z,84.30
2022-09-12T03:09:37.000Z,84.32
2022-09-12T03:10:57.000Z,84.55
2022-09-12T03:11:44.000Z,84.41
2022-09-12T03:12:41.000Z,84.82
2022-09-12T03:13:38.000Z,84.88
2022-09-12T03:14:39.000Z,84.75
2022-09-12T03:15:44.000Z,84.99
2022-09-12T03:16:54.000Z,84.80
2022-09-12T03:17:50.000Z,84.76
2022-09-12T03:18:45.000Z,84.75
2022-09-12T03:19:39.000Z,85.27
2022-09-12T03:20:39.000Z,85.66
2022-09-12T03:21:46.000Z,85.55
2022-09-12T03:22:45.000Z,85.23
2022-09-12T03:23:36.000Z,85.32
2022-09-12T03:24:35.000Z,85.03
2022-09-12T03:25:38.000Z,84.97
2022-09-12T03:26:41.000Z,84.69
2022-09-12T03:27:34.000Z,84.29
2022-09-12T03:28:32.000Z,84.49
2022-09-12T03:29:29.000Z,83.89
2022-09-12T03:30:35.000Z,84.37
2022-09-12T03:31:30.000Z,84.31
2022-09-12T03:32:39.000Z,84.40
2022-09-12T03:33:29.000Z,84.50
2022-09-12T03:34:29.000Z,84.46
2022-09-12T03:35:29.000Z,84.35
2022-09-12T03:36:30.000Z,84.34
2022-09-12T03:37:29.000Z,84.17
2022-09-12T03:38:29.000Z,84.46
2022-09-12T03:39:30.000Z,84.38
2022-09-12T03:40:29.000Z,84.11
2022-09-12T03:41:29.000Z,84.34
2022-09-12T03:42:30.000Z,83.97
2022-09-12T03:43:29.000Z,84.04
2022-09-12T03:44:29.000Z,83.83
2022-09-12T03:45:30.000Z,83.98
2022-09-12T03:46:29.000Z,83.93
2022-09-12T03:47:29.000Z,83.99
2022-09-12T03:48:30.000Z,84.07
2022-09-12T03:49:29.000Z,83.96
2022-09-12T03:50:30.000Z,84.01
2022-09-12T03:51:30.000Z,84.30
2022-09-12T03:52:29.000Z,84.40
2022-09-12T03:53:30.000Z,84.40
2022-09-12T03:54:29.000Z,84.27
2022-09-12T03:55:29.000Z,84.16
2022-09-12T03:56:29.000Z,84.30
2022-09-12T03:57:29.000Z,84.15
2022-09-12T03:58:30.000Z,84.09
2022-09-12T03:59:30.000Z,83.82
2022-09-12T04:00:29.000Z,83.92
2022-09-12T04:01:30.000Z,83.76
2022-09-12T04:02:29.000Z,83.82
2022-09-12T04:03:29.000Z,83.40
2022-09-12T04:04:30.000Z,83.82
2022-09-12T04:05:29.000Z,84.04
2022-09-12T04:06:30.000Z,84.25
2022-09-12T04:07:29.000Z,83.76
2022-09-12T04:08:29.000Z,83.93
2022-09-12T04:09:29.000Z,83.78
2022-09-12T04:10:29.000Z,83.36
2022-09-12T04:11:30.000Z,83.71
2022-09-12T04:12:29.000Z,83.59
2022-09-12T04:13:29.000Z,83.54
2022-09-12T04:14:29.000Z,83.36
2022-09-12T04:15:29.000Z,83.33
2022-09-12T04:16:30.000Z,83.24
2022-09-12T04:17:29.000Z,83.46
2022-09-12T04:18:30.000Z,83.62
2022-09-12T04:19:29.000Z,83.71
2022-09-12T04:20:29.000Z,83.70
2022-09-12T04:21:29.000Z,83.67
2022-09-12T04:22:30.000Z,83.52
2022-09-12T04:23:29.000Z,83.64
2022-09-12T04:24:29.000Z,83.60
2022-09-12T04:25:29.000Z,83.92
2022-09-12T04:26:29.000Z,83.99
2022-09-12T04:27:29.000Z,83.93
2022-09-12T04:28:31.000Z,84.10
2022-09-12T04:29:29.000Z,83.79
2022-09-12T04:30:31.000Z,84.28
2022-09-12T04:31:29.000Z,84.26
2022-09-12T04:32:29.000Z,84.15
2022-09-12T04:33:29.000Z,84.16
2022-09-12T04:34:29.000Z,83.99
2022-09-12T04:35:29.000Z,84.41
2022-09-12T04:36:29.000Z,84.63
2022-09-12T04:37:29.000Z,84.80
2022-09-12T04:38:30.000Z,84.63
2022-09-12T04:39:29.000Z,84.76
2022-09-12T04:40:30.000Z,85.14
2022-09-12T04:41:33.000Z,87.00
2022-09-12T04:42:30.000Z,87.55
2022-09-12T04:43:30.000Z,87.22
2022-09-12T04:44:30.000Z,86.88
2022-09-12T04:45:30.000Z,86.37
2022-09-12T04:46:36.000Z,86.26
2022-09-12T04:47:30.000Z,87.38
2022-09-12T04:48:30.000Z,87.26
2022-09-12T04:49:30.000Z,86.93
2022-09-12T04:50:30.000Z,87.24
2022-09-12T04:51:35.000Z,87.00
2022-09-12T04:52:29.000Z,87.29
2022-09-12T04:53:29.000Z,87.31
2022-09-12T04:54:30.000Z,87.03
2022-09-12T04:55:33.000Z,87.22
2022-09-12T04:56:30.000Z,87.28
2022-09-12T04:57:30.000Z,87.14
2022-09-12T04:58:31.000Z,86.80
2022-09-12T04:59:30.000Z,86.68
2022-09-12T05:00:30.000Z,86.82
2022-09-12T05:01:29.000Z,86.58
2022-09-12T05:02:32.000Z,86.79
2022-09-12T05:03:30.000Z,86.90
2022-09-12T05:04:30.000Z,86.86
2022-09-12T05:05:30.000Z,86.60
2022-09-12T05:06:33.000Z,86.48
2022-09-12T05:07:30.000Z,86.95
2022-09-12T05:08:30.000Z,87.32
2022-09-12T05:09:30.000Z,87.22
2022-09-12T05:10:29.000Z,86.75
2022-09-12T05:11:33.000Z,86.99
2022-09-12T05:12:30.000Z,86.91
2022-09-12T05:13:30.000Z,87.20
2022-09-12T05:14:32.000Z,87.31
2022-09-12T05:15:29.000Z,87.36
2022-09-12T05:16:30.000Z,86.82
2022-09-12T05:17:30.000Z,87.02
2022-09-12T05:18:31.000Z,86.89
2022-09-12T05:19:30.000Z,86.93
2022-09-12T05:20:31.000Z,87.19
2022-09-12T05:21:30.000Z,87.02
2022-09-12T05:22:29.000Z,86.90
2022-09-12T05:23:30.000Z,87.11
2022-09-12T05:24:29.000Z,87.20
2022-09-12T05:25:30.000Z,87.29
2022-09-12T05:26:30.000Z,87.12
2022-09-12T05:27:29.000Z,86.87
2022-09-12T05:28:33.000Z,86.91
2022-09-12T05:29:30.000Z,87.04
2022-09-12T05:30:29.000Z,87.04
2022-09-12T05:31:29.000Z,86.96
2022-09-12T05:32:30.000Z,87.16
2022-09-12T05:33:31.000Z,87.35
2022-09-12T05:34:29.000Z,87.52
2022-09-12T05:35:29.000Z,87.50
2022-09-12T05:36:30.000Z,87.37
2022-09-12T05:37:29.000Z,87.54
2022-09-12T05:38:30.000Z,87.28
2022-09-12T05:39:29.000Z,87.19
2022-09-12T05:40:30.000Z,87.09
2022-09-12T05:41:31.000Z,87.22
2022-09-12T05:42:29.000Z,87.36
2022-09-12T05:43:31.000Z,87.71
2022-09-12T05:44:29.000Z,87.51
2022-09-12T05:45:31.000Z,87.76
2022-09-12T05:46:39.000Z,87.58
2022-09-12T05:47:30.000Z,87.67
2022-09-12T05:48:30.000Z,87.68
2022-09-12T05:49:30.000Z,87.76
2022-09-12T05:50:29.000Z,88.06
2022-09-12T05:51:35.000Z,87.62
2022-09-12T05:52:30.000Z,88.10
2022-09-12T05:53:30.000Z,88.00
2022-09-12T05:54:29.000Z,88.00
2022-09-12T05:55:30.000Z,88.00
2022-09-12T05:56:33.000Z,88.06
2022-09-12T05:57:30.000Z,87.94
2022-09-12T05:58:30.000Z,87.87
2022-09-12T05:59:30.000Z,87.64
2022-09-12T06:00:29.000Z,87.77
2022-09-12T06:01:31.000Z,87.34
2022-09-12T06:02:30.000Z,87.27
2022-09-12T06:03:30.000Z,87.33
2022-09-12T06:04:29.000Z,87.38
2022-09-12T06:05:33.000Z,87.52
2022-09-12T06:06:31.000Z,87.51
2022-09-12T06:07:31.000Z,87.19
2022-09-12T06:08:31.000Z,87.21
2022-09-12T06:09:29.000Z,87.14
2022-09-12T06:10:29.000Z,87.05
2022-09-12T06:11:31.000Z,87.15
2022-09-12T06:12:29.000Z,86.76
2022-09-12T06:13:31.000Z,86.81
2022-09-12T06:14:31.000Z,86.74
2022-09-12T06:15:30.000Z,86.47
2022-09-12T06:16:31.000Z,86.29
2022-09-12T06:17:29.000Z,86.62
2022-09-12T06:18:30.000Z,86.48
2022-09-12T06:19:29.000Z,86.43
2022-09-12T06:20:29.000Z,86.13
2022-09-12T06:21:29.000Z,86.05
2022-09-12T06:22:29.000Z,86.12
2022-09-12T06:23:29.000Z,86.28
2022-09-12T06:24:29.000Z,86.30
2022-09-12T06:25:29.000Z,86.19
2022-09-12T06:26:29.000Z,86.06
2022-09-12T06:27:29.000Z,86.01
2022-09-12T06:28:30.000Z,86.30
2022-09-12T06:29:30.000Z,86.06
2022-09-12T06:30:29.000Z,86.06
2022-09-12T06:31:35.000Z,86.02
2022-09-12T06:32:29.000Z,85.84
2022-09-12T06:33:32.000Z,85.64
2022-09-12T06:34:29.000Z,85.92
2022-09-12T06:35:29.000Z,85.73
2022-09-12T06:36:32.000Z,85.70
2022-09-12T06:37:29.000Z,85.43
2022-09-12T06:38:30.000Z,85.20
2022-09-12T06:39:31.000Z,84.88
2022-09-12T06:40:30.000Z,85.03
2022-09-12T06:41:30.000Z,84.71
2022-09-12T06:42:29.000Z,84.62
2022-09-12T06:43:29.000Z,84.47
2022-09-12T06:44:30.000Z,84.38
2022-09-12T06:45:29.000Z,84.56
2022-09-12T06:46:29.000Z,84.19
2022-09-12T06:47:29.000Z,84.20
2022-09-12T06:48:29.000Z,84.19
2022-09-12T06:49:30.000Z,83.69
2022-09-12T06:50:29.000Z,84.02
2022-09-12T06:51:29.000Z,84.22
2022-09-12T06:52:29.000Z,84.23
2022-09-12T06:53:31.000Z,83.64
2022-09-12T06:54:29.000Z,83.41
2022-09-12T06:55:29.000Z,83.59
2022-09-12T06:56:30.000Z,84.09
2022-09-12T06:57:31.000Z,83.43
2022-09-12T06:58:30.000Z,83.58
2022-09-12T06:59:30.000Z,83.45
2022-09-12T07:00:30.000Z,83.51
2022-09-12T07:01:30.000Z,84.06
2022-09-12T07:02:29.000Z,83.91
2022-09-12T07:03:30.000Z,84.05
2022-09-12T07:04:32.000Z,83.50
2022-09-12T07:05:32.000Z,83.30
2022-09-12T07:06:38.000Z,83.74
2022-09-12T07:07:32.000Z,83.57
2022-09-12T07:08:30.000Z,83.43
2022-09-12T07:09:29.000Z,82.84
2022-09-12T07:10:30.000Z,82.35
2022-09-12T07:11:33.000Z,82.68
2022-09-12T07:12:30.000Z,82.59
2022-09-12T07:13:29.000Z,83.08
2022-09-12T07:14:30.000Z,83.02
2022-09-12T07:15:30.000Z,82.89
2022-09-12T07:16:30.000Z,82.58
2022-09-12T07:17:29.000Z,82.41
2022-09-12T07:18:32.000Z,82.30
2022-09-12T07:19:29.000Z,82.36
2022-09-12T07:20:31.000Z,82.36
2022-09-12T07:21:30.000Z,82.30
2022-09-12T07:22:29.000Z,82.63
2022-09-12T07:23:30.000Z,82.14
2022-09-12T07:24:29.000Z,81.65
2022-09-12T07:25:30.000Z,81.29
2022-09-12T07:26:30.000Z,81.88
2022-09-12T07:27:30.000Z,81.70
2022-09-12T07:28:31.000Z,81.73
2022-09-12T07:29:30.000Z,81.40
2022-09-12T07:30:30.000Z,81.26
2022-09-12T07:31:30.000Z,81.19
2022-09-12T07:32:30.000Z,80.93
2022-09-12T07:33:30.000Z,81.29
2022-09-12T07:34:30.000Z,82.13
2022-09-12T07:35:31.000Z,82.15
2022-09-12T07:36:30.000Z,82.07
2022-09-12T07:37:30.000Z,81.96
2022-09-12T07:38:30.000Z,81.61
2022-09-12T07:39:30.000Z,81.38
2022-09-12T07:40:29.000Z,81.45
2022-09-12T07:41:31.000Z,81.46
2022-09-12T07:42:30.000Z,80.95
2022-09-12T07:43:29.000Z,80.80
2022-09-12T07:44:29.000Z,79.80
2022-09-12T07:45:30.000Z,79.67
2022-09-12T07:46:30.000Z,79.97
2022-09-12T07:47:29.000Z,80.14
2022-09-12T07:48:30.000Z,80.49
2022-09-12T07:49:29.000Z,80.48
2022-09-12T07:50:30.000Z,80.23
2022-09-12T07:51:30.000Z,79.64
2022-09-12T07:52:30.000Z,79.64
2022-09-12T07:53:32.000Z,79.80
2022-09-12T07:54:32.000Z,79.90
2022-09-12T07:55:30.000Z,80.69
2022-09-12T07:56:29.000Z,80.24
2022-09-12T07:57:30.000Z,80.70
2022-09-12T07:58:31.000Z,80.40
2022-09-12T07:59:29.000Z,80.20
2022-09-12T08:00:34.000Z,80.17
2022-09-12T08:01:30.000Z,80.58
2022-09-12T08:02:30.000Z,79.27
2022-09-12T08:03:30.000Z,79.22
2022-09-12T08:04:29.000Z,79.81
2022-09-12T08:05:30.000Z,79.52
2022-09-12T08:06:32.000Z,79.38
2022-09-12T08:07:30.000Z,78.62
2022-09-12T08:08:30.000Z,78.61
2022-09-12T08:09:30.000Z,78.54
2022-09-12T08:10:30.000Z,78.33
2022-09-12T08:11:29.000Z,78.68
2022-09-12T08:12:31.000Z,79.47
2022-09-12T08:13:31.000Z,79.54
2022-09-12T08:14:29.000Z,78.99
2022-09-12T08:15:30.000Z,79.16
2022-09-12T08:16:31.000Z,78.96
2022-09-12T08:17:29.000Z,78.62
2022-09-12T08:18:31.000Z,78.40
2022-09-12T08:19:30.000Z,77.82
2022-09-12T08:20:30.000Z,77.69
2022-09-12T08:21:32.000Z,77.10
2022-09-12T08:22:30.000Z,77.59
2022-09-12T08:23:30.000Z,77.15
2022-09-12T08:24:31.000Z,76.32
2022-09-12T08:25:30.000Z,76.22
2022-09-12T08:26:31.000Z,76.43
2022-09-12T08:27:29.000Z,77.62
2022-09-12T08:28:31.000Z,77.64
2022-09-12T08:29:30.000Z,77.53
2022-09-12T08:30:29.000Z,77.07
2022-09-12T08:31:35.000Z,77.43
2022-09-12T08:32:29.000Z,77.76
2022-09-12T08:33:33.000Z,76.03
2022-09-12T08:34:30.000Z,76.40
2022-09-12T08:35:29.000Z,76.31
2022-09-12T08:36:30.000Z,77.03
2022-09-12T08:37:30.000Z,77.12
2022-09-12T08:38:30.000Z,77.26
2022-09-12T08:39:31.000Z,75.30
2022-09-12T08:40:31.000Z,75.70
2022-09-12T08:41:35.000Z,75.12
2022-09-12T08:42:55.000Z,75.67
2022-09-12T08:43:49.000Z,74.75
2022-09-12T08:44:39.000Z,75.11
2022-09-12T08:45:40.000Z,75.10
2022-09-12T08:46:39.000Z,75.80
2022-09-12T08:47:38.000Z,75.98
2022-09-12T08:48:30.000Z,75.21
2022-09-12T08:49:36.000Z,75.00
2022-09-12T08:50:31.000Z,74.56
2022-09-12T08:51:32.000Z,75.11
2022-09-12T08:52:37.000Z,74.25
2022-09-12T08:53:32.000Z,74.73
2022-09-12T08:54:30.000Z,74.40
2022-09-12T08:55:55.000Z,73.84
2022-09-12T08:56:34.000Z,74.17
2022-09-12T08:57:29.000Z,74.82
2022-09-12T08:58:36.000Z,73.38
2022-09-12T08:59:35.000Z,73.18
2022-09-12T09:00:39.000Z,72.90
2022-09-12T09:01:35.000Z,73.80
2022-09-12T09:02:44.000Z,73.18
2022-09-12T09:03:49.000Z,73.90
2022-09-12T09:04:42.000Z,73.97
2022-09-12T09:05:39.000Z,72.83
2022-09-12T09:06:39.000Z,72.70
2022-09-12T09:07:39.000Z,72.18
2022-09-12T09:08:49.000Z,72.51
2022-09-12T09:09:40.000Z,72.83
2022-09-12T09:10:46.000Z,72.19
2022-09-12T09:11:39.000Z,72.38
2022-09-12T09:12:39.000Z,72.67
2022-09-12T09:13:44.000Z,72.83
2022-09-12T09:14:51.000Z,72.05
2022-09-12T09:15:44.000Z,72.29
2022-09-12T09:16:33.000Z,71.80
2022-09-12T09:17:39.000Z,71.72
2022-09-12T09:18:32.000Z,72.16
2022-09-12T09:19:36.000Z,73.22
2022-09-12T09:20:51.000Z,73.45
2022-09-12T09:21:39.000Z,71.38
2022-09-12T09:22:40.000Z,72.40
2022-09-12T09:23:35.000Z,72.79
2022-09-12T09:24:38.000Z,72.79
2022-09-12T09:25:41.000Z,71.77
2022-09-12T09:26:40.000Z,71.73
2022-09-12T09:27:40.000Z,71.65
2022-09-12T09:28:40.000Z,72.08
2022-09-12T09:29:39.000Z,72.25
2022-09-12T09:30:30.000Z,72.09
2022-09-12T09:31:34.000Z,72.90
2022-09-12T09:32:35.000Z,70.96
2022-09-12T09:33:33.000Z,70.45
2022-09-12T09:34:30.000Z,71.30
2022-09-12T09:35:46.000Z,71.35
2022-09-12T09:36:39.000Z,69.93
2022-09-12T09:37:40.000Z,69.74
2022-09-12T09:38:52.000Z,70.10
2022-09-12T09:39:47.000Z,70.40
2022-09-12T09:40:42.000Z,70.41
2022-09-12T09:41:42.000Z,71.02
2022-09-12T09:42:40.000Z,71.03
2022-09-12T09:43:30.000Z,70.99
2022-09-12T09:44:30.000Z,70.58
2022-09-12T09:45:30.000Z,69.86
2022-09-12T09:46:31.000Z,68.83
2022-09-12T09:47:30.000Z,69.10
2022-09-12T09:48:35.000Z,70.64
2022-09-12T09:49:33.000Z,67.96
2022-09-12T09:50:30.000Z,68.73
2022-09-12T09:51:35.000Z,69.18
2022-09-12T09:52:30.000Z,68.99
2022-09-12T09:53:42.000Z,68.55
2022-09-12T09:54:41.000Z,68.85
2022-09-12T09:55:38.000Z,69.49
2022-09-12T09:56:36.000Z,68.22
2022-09-12T09:57:48.000Z,67.41
2022-09-12T09:58:32.000Z,66.58
2022-09-12T09:59:32.000Z,65.65
2022-09-12T10:00:33.000Z,66.54
2022-09-12T10:01:30.000Z,67.27
2022-09-12T10:02:30.000Z,67.61
2022-09-12T10:03:32.000Z,67.27
2022-09-12T10:04:33.000Z,66.53
2022-09-12T10:05:33.000Z,68.57
2022-09-12T10:06:32.000Z,67.66
2022-09-12T10:07:30.000Z,66.51
2022-09-12T10:08:32.000Z,66.39
2022-09-12T10:09:34.000Z,65.90
2022-09-12T10:10:30.000Z,66.02
2022-09-12T10:11:31.000Z,65.99
2022-09-12T10:12:30.000Z,66.06
2022-09-12T10:13:38.000Z,66.08
2022-09-12T10:14:52.000Z,64.99
2022-09-12T10:15:30.000Z,64.32
2022-09-12T10:16:32.000Z,64.94
2022-09-12T10:17:40.000Z,65.10
2022-09-12T10:18:37.000Z,64.34
2022-09-12T10:19:36.000Z,62.28
2022-09-12T10:20:39.000Z,62.15
2022-09-12T10:21:46.000Z,61.81
2022-09-12T10:22:30.000Z,63.53
2022-09-12T10:23:34.000Z,63.62
2022-09-12T10:24:37.000Z,63.50
2022-09-12T10:25:30.000Z,62.47
2022-09-12T10:26:33.000Z,63.55
2022-09-12T10:27:31.000Z,61.91
2022-09-12T10:28:37.000Z,62.41
2022-09-12T10:29:33.000Z,62.68
2022-09-12T10:30:30.000Z,62.70
2022-09-12T10:31:51.000Z,62.60
2022-09-12T10:32:37.000Z,62.52
2022-09-12T10:33:38.000Z,62.20
2022-09-12T10:34:37.000Z,63.07
2022-09-12T10:35:42.000Z,61.88
2022-09-12T10:36:37.000Z,61.75
2022-09-12T10:37:35.000Z,61.74
2022-09-12T10:38:31.000Z,59.97
2022-09-12T10:39:30.000Z,61.79
2022-09-12T10:40:38.000Z,61.12
2022-09-12T10:41:38.000Z,60.84
2022-09-12T10:42:39.000Z,61.31
2022-09-12T10:43:38.000Z,61.76
2022-09-12T10:44:32.000Z,59.56
2022-09-12T10:45:32.000Z,60.82
2022-09-12T10:46:29.000Z,60.78
2022-09-12T10:47:30.000Z,60.26
2022-09-12T10:48:31.000Z,59.89
2022-09-12T10:49:30.000Z,59.37
2022-09-12T10:50:37.000Z,60.79
2022-09-12T10:51:29.000Z,59.64
2022-09-12T10:52:29.000Z,57.61
2022-09-12T10:53:38.000Z,57.01
2022-09-12T10:54:29.000Z,56.84
2022-09-12T10:55:33.000Z,56.62
2022-09-12T10:56:33.000Z,57.95
2022-09-12T10:57:53.000Z,58.27
2022-09-12T10:58:45.000Z,57.30
2022-09-12T10:59:40.000Z,57.57
2022-09-12T11:00:36.000Z,59.12
2022-09-12T11:01:48.000Z,58.55
2022-09-12T11:02:57.000Z,57.61
2022-09-12T11:03:54.000Z,56.24
2022-09-12T11:04:48.000Z,57.34
2022-09-12T11:05:41.000Z,57.70
2022-09-12T11:06:40.000Z,57.56
2022-09-12T11:07:44.000Z,57.20
2022-09-12T11:08:43.000Z,57.60
2022-09-12T11:09:50.000Z,57.86
2022-09-12T11:10:44.000Z,57.79
2022-09-12T11:11:49.000Z,58.50
2022-09-12T11:12:40.000Z,57.87
2022-09-12T11:14:00.000Z,55.99
2022-09-12T11:14:47.000Z,55.65
2022-09-12T11:15:53.000Z,57.23
2022-09-12T11:16:52.000Z,57.89
2022-09-12T11:17:55.000Z,56.79
2022-09-12T11:18:50.000Z,54.41
2022-09-12T11:19:40.000Z,55.51
2022-09-12T11:20:40.000Z,56.47
2022-09-12T11:21:57.000Z,55.29
2022-09-12T11:22:43.000Z,54.28
2022-09-12T11:23:50.000Z,55.46
2022-09-12T11:24:50.000Z,55.23
2022-09-12T11:25:38.000Z,55.29
2022-09-12T11:26:53.000Z,54.50
2022-09-12T11:27:52.000Z,55.04
2022-09-12T11:28:52.000Z,55.42
2022-09-12T11:29:40.000Z,54.59
2022-09-12T11:30:41.000Z,53.64
2022-09-12T11:31:40.000Z,52.39
2022-09-12T11:32:41.000Z,52.95
2022-09-12T11:33:40.000Z,53.93
2022-09-12T11:34:40.000Z,53.42
2022-09-12T11:35:37.000Z,54.35
2022-09-12T11:36:40.000Z,53.47
2022-09-12T11:37:40.000Z,54.31
2022-09-12T11:38:52.000Z,54.22
2022-09-12T11:39:37.000Z,53.60
2022-09-12T11:40:41.000Z,53.91
2022-09-12T11:41:35.000Z,53.63
2022-09-12T11:42:36.000Z,53.03
2022-09-12T11:43:37.000Z,53.60
2022-09-12T11:44:40.000Z,52.47
2022-09-12T11:45:38.000Z,53.18
2022-09-12T11:46:35.000Z,53.13
2022-09-12T11:47:33.000Z,52.13
2022-09-12T11:48:54.000Z,51.51
2022-09-12T11:49:38.000Z,51.42
2022-09-12T11:50:30.000Z,52.86
2022-09-12T11:51:49.000Z,51.70
2022-09-12T11:52:36.000Z,51.98
2022-09-12T11:53:36.000Z,52.62
2022-09-12T11:54:37.000Z,51.86
2022-09-12T11:55:42.000Z,52.45
2022-09-12T11:56:29.000Z,50.85
2022-09-12T11:57:35.000Z,50.79
2022-09-12T11:58:29.000Z,50.36
2022-09-12T11:59:44.000Z,50.50
2022-09-12T12:00:36.000Z,51.56
2022-09-12T12:01:41.000Z,53.05
2022-09-12T12:02:35.000Z,51.92
2022-09-12T12:03:39.000Z,51.80
2022-09-12T12:04:38.000Z,51.52
2022-09-12T12:05:50.000Z,51.95
2022-09-12T12:06:32.000Z,51.94
2022-09-12T12:07:54.000Z,50.52
2022-09-12T12:08:35.000Z,49.81
2022-09-12T12:09:30.000Z,50.96
2022-09-12T12:10:36.000Z,51.81
2022-09-12T12:11:34.000Z,49.88
2022-09-12T12:12:29.000Z,49.36
2022-09-12T12:13:33.000Z,50.31
2022-09-12T12:14:39.000Z,49.59
2022-09-12T12:15:29.000Z,49.18
2022-09-12T12:16:36.000Z,50.43
2022-09-12T12:17:29.000Z,48.20
2022-09-12T12:18:32.000Z,49.64
2022-09-12T12:19:35.000Z,50.17
2022-09-12T12:20:29.000Z,47.86
2022-09-12T12:21:40.000Z,48.96
2022-09-12T12:22:30.000Z,49.52
2022-09-12T12:23:32.000Z,49.53
2022-09-12T12:24:30.000Z,50.01
2022-09-12T12:25:39.000Z,49.32
2022-09-12T12:26:42.000Z,49.65
2022-09-12T12:27:39.000Z,49.76
2022-09-12T12:28:56.000Z,49.96
2022-09-12T12:29:41.000Z,48.51
2022-09-12T12:30:49.000Z,48.74
2022-09-12T12:31:29.000Z,48.22
2022-09-12T12:32:29.000Z,49.56
2022-09-12T12:33:58.000Z,48.28
2022-09-12T12:34:37.000Z,48.55
2022-09-12T12:35:49.000Z,49.84
2022-09-12T12:36:35.000Z,47.48
2022-09-12T12:37:48.000Z,47.50
2022-09-12T12:38:35.000Z,46.54
2022-09-12T12:40:00.000Z,46.61
2022-09-12T12:40:30.000Z,47.00
2022-09-12T12:41:43.000Z,47.43
2022-09-12T12:42:59.000Z,47.64
2022-09-12T12:43:31.000Z,48.50
2022-09-12T12:44:40.000Z,48.27
2022-09-12T12:45:46.000Z,48.95
2022-09-12T12:46:29.000Z,47.97
2022-09-12T12:47:41.000Z,48.19
2022-09-12T12:48:33.000Z,46.97
2022-09-12T12:49:29.000Z,47.68
2022-09-12T12:50:30.000Z,46.85
2022-09-12T12:51:41.000Z,47.58
2022-09-12T12:52:47.000Z,47.90